sensor_id;sensor_type;location;lat;lon;timestamp;P1;durP1;ratioP1;P2;durP2;ratioP2
62332;SDS011;48624;49.812;8.562;2023-04-03T00:00:53;59.97;;;57.57;;
62332;SDS011;48624;49.812;8.562;2023-04-03T00:03:19;65.93;;;63.67;;
62332;SDS011;48624;49.812;8.562;2023-04-03T00:05:45;69.50;;;67.03;;
62332;SDS011;48624;49.812;8.562;2023-04-03T00:08:11;70.80;;;68.30;;
62332;SDS011;48624;49.812;8.562;2023-04-03T00:10:37;71.13;;;68.63;;
62332;SDS011;48624;49.812;8.562;2023-04-03T00:13:03;77.40;;;74.57;;
62332;SDS011;48624;49.812;8.562;2023-04-03T00:15:30;73.23;;;70.53;;
62332;SDS011;48624;49.812;8.562;2023-04-03T00:17:56;82.93;;;79.47;;
62332;SDS011;48624;49.812;8.562;2023-04-03T00:20:21;78.07;;;75.30;;
62332;SDS011;48624;49.812;8.562;2023-04-03T00:22:46;86.30;;;83.37;;
62332;SDS011;48624;49.812;8.562;2023-04-03T00:25:12;87.90;;;84.63;;
62332;SDS011;48624;49.812;8.562;2023-04-03T00:27:38;83.63;;;80.40;;
62332;SDS011;48624;49.812;8.562;2023-04-03T00:30:04;87.10;;;83.97;;
62332;SDS011;48624;49.812;8.562;2023-04-03T00:32:31;88.40;;;85.27;;
62332;SDS011;48624;49.812;8.562;2023-04-03T00:34:57;81.37;;;78.57;;
62332;SDS011;48624;49.812;8.562;2023-04-03T00:37:23;84.13;;;81.13;;
62332;SDS011;48624;49.812;8.562;2023-04-03T00:39:48;89.37;;;86.23;;
62332;SDS011;48624;49.812;8.562;2023-04-03T00:42:14;86.73;;;83.63;;
62332;SDS011;48624;49.812;8.562;2023-04-03T00:47:05;81.60;;;78.63;;
62332;SDS011;48624;49.812;8.562;2023-04-03T00:49:33;75.97;;;73.27;;
62332;SDS011;48624;49.812;8.562;2023-04-03T00:52:01;83.07;;;80.13;;
62332;SDS011;48624;49.812;8.562;2023-04-03T00:54:26;80.30;;;77.37;;
62332;SDS011;48624;49.812;8.562;2023-04-03T00:56:52;81.93;;;78.70;;
62332;SDS011;48624;49.812;8.562;2023-04-03T00:59:21;81.13;;;78.23;;
62332;SDS011;48624;49.812;8.562;2023-04-03T01:01:54;76.27;;;73.40;;
62332;SDS011;48624;49.812;8.562;2023-04-03T01:04:27;76.97;;;74.07;;
62332;SDS011;48624;49.812;8.562;2023-04-03T01:06:55;80.53;;;77.73;;
62332;SDS011;48624;49.812;8.562;2023-04-03T01:09:24;71.33;;;68.93;;
62332;SDS011;48624;49.812;8.562;2023-04-03T01:11:51;77.20;;;74.67;;
62332;SDS011;48624;49.812;8.562;2023-04-03T01:14:16;77.90;;;75.27;;
62332;SDS011;48624;49.812;8.562;2023-04-03T01:16:53;73.50;;;70.37;;
62332;SDS011;48624;49.812;8.562;2023-04-03T01:19:19;74.40;;;71.63;;
62332;SDS011;48624;49.812;8.562;2023-04-03T01:24:35;67.50;;;65.17;;
62332;SDS011;48624;49.812;8.562;2023-04-03T01:27:04;72.77;;;70.27;;
62332;SDS011;48624;49.812;8.562;2023-04-03T01:29:31;71.37;;;68.87;;
62332;SDS011;48624;49.812;8.562;2023-04-03T01:31:58;73.57;;;70.90;;
62332;SDS011;48624;49.812;8.562;2023-04-03T01:34:27;78.27;;;75.47;;
62332;SDS011;48624;49.812;8.562;2023-04-03T01:36:53;79.67;;;76.93;;
62332;SDS011;48624;49.812;8.562;2023-04-03T01:39:18;71.10;;;68.60;;
62332;SDS011;48624;49.812;8.562;2023-04-03T01:41:45;73.30;;;70.50;;
62332;SDS011;48624;49.812;8.562;2023-04-03T01:44:11;74.70;;;72.17;;
62332;SDS011;48624;49.812;8.562;2023-04-03T01:46:36;74.70;;;72.10;;
62332;SDS011;48624;49.812;8.562;2023-04-03T01:49:02;80.40;;;77.60;;
62332;SDS011;48624;49.812;8.562;2023-04-03T01:51:28;75.70;;;73.13;;
62332;SDS011;48624;49.812;8.562;2023-04-03T01:53:53;80.33;;;77.63;;
62332;SDS011;48624;49.812;8.562;2023-04-03T01:56:19;77.37;;;74.70;;
62332;SDS011;48624;49.812;8.562;2023-04-03T01:58:45;83.20;;;80.30;;
62332;SDS011;48624;49.812;8.562;2023-04-03T02:01:10;80.63;;;77.90;;
62332;SDS011;48624;49.812;8.562;2023-04-03T02:03:35;80.57;;;77.83;;
62332;SDS011;48624;49.812;8.562;2023-04-03T02:06:01;80.77;;;78.07;;
62332;SDS011;48624;49.812;8.562;2023-04-03T02:08:27;76.77;;;73.93;;
62332;SDS011;48624;49.812;8.562;2023-04-03T02:10:52;71.13;;;68.73;;
62332;SDS011;48624;49.812;8.562;2023-04-03T02:13:18;75.97;;;73.23;;
62332;SDS011;48624;49.812;8.562;2023-04-03T02:15:44;77.07;;;74.43;;
62332;SDS011;48624;49.812;8.562;2023-04-03T02:18:10;76.67;;;73.83;;
62332;SDS011;48624;49.812;8.562;2023-04-03T02:20:36;71.57;;;68.93;;
62332;SDS011;48624;49.812;8.562;2023-04-03T02:23:01;80.77;;;78.00;;
62332;SDS011;48624;49.812;8.562;2023-04-03T02:25:27;77.90;;;74.67;;
62332;SDS011;48624;49.812;8.562;2023-04-03T02:27:53;74.83;;;71.07;;
62332;SDS011;48624;49.812;8.562;2023-04-03T02:30:19;78.83;;;75.43;;
62332;SDS011;48624;49.812;8.562;2023-04-03T02:32:44;70.13;;;67.47;;
62332;SDS011;48624;49.812;8.562;2023-04-03T02:35:10;74.67;;;71.97;;
62332;SDS011;48624;49.812;8.562;2023-04-03T02:37:36;78.50;;;75.27;;
62332;SDS011;48624;49.812;8.562;2023-04-03T02:40:02;69.00;;;66.50;;
62332;SDS011;48624;49.812;8.562;2023-04-03T02:42:29;75.33;;;72.33;;
62332;SDS011;48624;49.812;8.562;2023-04-03T02:44:54;73.47;;;70.97;;
62332;SDS011;48624;49.812;8.562;2023-04-03T02:47:20;80.77;;;77.90;;
62332;SDS011;48624;49.812;8.562;2023-04-03T02:49:46;71.40;;;68.93;;
62332;SDS011;48624;49.812;8.562;2023-04-03T02:52:12;66.60;;;64.23;;
62332;SDS011;48624;49.812;8.562;2023-04-03T02:54:39;69.67;;;67.23;;
62332;SDS011;48624;49.812;8.562;2023-04-03T02:57:05;69.90;;;67.40;;
62332;SDS011;48624;49.812;8.562;2023-04-03T02:59:33;73.90;;;71.17;;
62332;SDS011;48624;49.812;8.562;2023-04-03T03:01:59;65.37;;;63.10;;
62332;SDS011;48624;49.812;8.562;2023-04-03T03:04:26;64.50;;;61.97;;
62332;SDS011;48624;49.812;8.562;2023-04-03T03:06:51;68.73;;;66.23;;
62332;SDS011;48624;49.812;8.562;2023-04-03T03:09:17;64.47;;;62.20;;
62332;SDS011;48624;49.812;8.562;2023-04-03T03:11:42;69.33;;;66.23;;
62332;SDS011;48624;49.812;8.562;2023-04-03T03:14:08;65.63;;;63.13;;
62332;SDS011;48624;49.812;8.562;2023-04-03T03:16:33;60.83;;;58.27;;
62332;SDS011;48624;49.812;8.562;2023-04-03T03:18:58;57.00;;;54.80;;
62332;SDS011;48624;49.812;8.562;2023-04-03T03:21:24;56.80;;;54.50;;
62332;SDS011;48624;49.812;8.562;2023-04-03T03:23:50;61.63;;;59.17;;
62332;SDS011;48624;49.812;8.562;2023-04-03T03:26:15;54.20;;;51.87;;
62332;SDS011;48624;49.812;8.562;2023-04-03T03:28:45;54.83;;;52.70;;
62332;SDS011;48624;49.812;8.562;2023-04-03T03:31:11;51.47;;;49.43;;
62332;SDS011;48624;49.812;8.562;2023-04-03T03:33:38;53.00;;;50.90;;
62332;SDS011;48624;49.812;8.562;2023-04-03T03:36:04;57.17;;;55.00;;
62332;SDS011;48624;49.812;8.562;2023-04-03T03:38:29;59.70;;;57.23;;
62332;SDS011;48624;49.812;8.562;2023-04-03T03:40:56;56.27;;;54.13;;
62332;SDS011;48624;49.812;8.562;2023-04-03T03:43:22;53.07;;;51.00;;
62332;SDS011;48624;49.812;8.562;2023-04-03T03:45:51;56.90;;;54.63;;
62332;SDS011;48624;49.812;8.562;2023-04-03T03:48:17;52.67;;;50.70;;
62332;SDS011;48624;49.812;8.562;2023-04-03T03:50:43;49.30;;;47.37;;
62332;SDS011;48624;49.812;8.562;2023-04-03T03:53:08;56.33;;;54.20;;
62332;SDS011;48624;49.812;8.562;2023-04-03T03:55:33;47.83;;;45.90;;
62332;SDS011;48624;49.812;8.562;2023-04-03T03:57:58;51.63;;;49.43;;
62332;SDS011;48624;49.812;8.562;2023-04-03T04:00:26;47.30;;;45.20;;
62332;SDS011;48624;49.812;8.562;2023-04-03T04:02:51;50.20;;;48.10;;
62332;SDS011;48624;49.812;8.562;2023-04-03T04:05:17;53.33;;;51.20;;
62332;SDS011;48624;49.812;8.562;2023-04-03T04:07:42;50.43;;;48.40;;
62332;SDS011;48624;49.812;8.562;2023-04-03T04:10:08;49.50;;;47.40;;
62332;SDS011;48624;49.812;8.562;2023-04-03T04:12:34;51.03;;;48.73;;
62332;SDS011;48624;49.812;8.562;2023-04-03T04:15:00;51.53;;;49.47;;
62332;SDS011;48624;49.812;8.562;2023-04-03T04:17:26;56.23;;;53.97;;
62332;SDS011;48624;49.812;8.562;2023-04-03T04:19:51;54.80;;;52.57;;
62332;SDS011;48624;49.812;8.562;2023-04-03T04:22:16;55.63;;;53.13;;
62332;SDS011;48624;49.812;8.562;2023-04-03T04:24:41;56.07;;;53.87;;
62332;SDS011;48624;49.812;8.562;2023-04-03T04:27:07;52.03;;;49.97;;
62332;SDS011;48624;49.812;8.562;2023-04-03T04:29:32;57.30;;;55.00;;
62332;SDS011;48624;49.812;8.562;2023-04-03T04:32:01;60.63;;;58.33;;
62332;SDS011;48624;49.812;8.562;2023-04-03T04:34:27;68.40;;;65.47;;
62332;SDS011;48624;49.812;8.562;2023-04-03T04:36:53;59.37;;;57.17;;
62332;SDS011;48624;49.812;8.562;2023-04-03T04:39:18;62.33;;;59.63;;
62332;SDS011;48624;49.812;8.562;2023-04-03T04:41:43;62.00;;;59.50;;
62332;SDS011;48624;49.812;8.562;2023-04-03T04:44:09;65.43;;;62.93;;
62332;SDS011;48624;49.812;8.562;2023-04-03T04:46:34;72.17;;;69.43;;
62332;SDS011;48624;49.812;8.562;2023-04-03T04:49:00;57.50;;;55.23;;
62332;SDS011;48624;49.812;8.562;2023-04-03T04:51:25;61.37;;;58.87;;
62332;SDS011;48624;49.812;8.562;2023-04-03T04:53:50;63.60;;;61.17;;
62332;SDS011;48624;49.812;8.562;2023-04-03T04:56:16;61.33;;;58.67;;
62332;SDS011;48624;49.812;8.562;2023-04-03T04:58:41;69.97;;;67.03;;
62332;SDS011;48624;49.812;8.562;2023-04-03T05:01:07;71.83;;;69.13;;
62332;SDS011;48624;49.812;8.562;2023-04-03T05:03:34;56.20;;;54.13;;
62332;SDS011;48624;49.812;8.562;2023-04-03T05:05:59;73.43;;;70.37;;
62332;SDS011;48624;49.812;8.562;2023-04-03T05:08:25;72.17;;;69.17;;
62332;SDS011;48624;49.812;8.562;2023-04-03T05:10:50;63.67;;;61.07;;
62332;SDS011;48624;49.812;8.562;2023-04-03T05:13:16;67.90;;;65.47;;
62332;SDS011;48624;49.812;8.562;2023-04-03T05:15:41;73.97;;;71.27;;
62332;SDS011;48624;49.812;8.562;2023-04-03T05:18:08;73.80;;;70.97;;
62332;SDS011;48624;49.812;8.562;2023-04-03T05:20:33;76.33;;;73.53;;
62332;SDS011;48624;49.812;8.562;2023-04-03T05:23:00;73.57;;;70.60;;
62332;SDS011;48624;49.812;8.562;2023-04-03T05:25:25;89.27;;;85.60;;
62332;SDS011;48624;49.812;8.562;2023-04-03T05:27:51;85.73;;;82.27;;
62332;SDS011;48624;49.812;8.562;2023-04-03T05:30:16;78.70;;;75.73;;
62332;SDS011;48624;49.812;8.562;2023-04-03T05:32:42;73.00;;;70.23;;
62332;SDS011;48624;49.812;8.562;2023-04-03T05:35:07;66.63;;;64.07;;
62332;SDS011;48624;49.812;8.562;2023-04-03T05:37:34;74.10;;;71.37;;
62332;SDS011;48624;49.812;8.562;2023-04-03T05:39:59;67.20;;;64.63;;
62332;SDS011;48624;49.812;8.562;2023-04-03T05:42:25;76.70;;;73.80;;
62332;SDS011;48624;49.812;8.562;2023-04-03T05:44:50;131.13;;;126.33;;
62332;SDS011;48624;49.812;8.562;2023-04-03T05:47:16;79.13;;;76.13;;
62332;SDS011;48624;49.812;8.562;2023-04-03T05:49:42;75.17;;;72.50;;
62332;SDS011;48624;49.812;8.562;2023-04-03T05:52:13;84.63;;;81.43;;
62332;SDS011;48624;49.812;8.562;2023-04-03T05:54:46;73.37;;;70.80;;
62332;SDS011;48624;49.812;8.562;2023-04-03T05:57:13;86.83;;;83.03;;
62332;SDS011;48624;49.812;8.562;2023-04-03T05:59:38;103.00;;;98.93;;
62332;SDS011;48624;49.812;8.562;2023-04-03T06:02:04;99.63;;;96.03;;
62332;SDS011;48624;49.812;8.562;2023-04-03T06:04:30;91.20;;;88.00;;
62332;SDS011;48624;49.812;8.562;2023-04-03T06:06:56;103.37;;;99.47;;
62332;SDS011;48624;49.812;8.562;2023-04-03T06:09:23;87.60;;;84.40;;
62332;SDS011;48624;49.812;8.562;2023-04-03T06:11:52;70.70;;;68.07;;
62332;SDS011;48624;49.812;8.562;2023-04-03T06:14:18;85.17;;;81.73;;
62332;SDS011;48624;49.812;8.562;2023-04-03T06:16:44;69.83;;;67.33;;
62332;SDS011;48624;49.812;8.562;2023-04-03T06:19:11;69.67;;;66.90;;
62332;SDS011;48624;49.812;8.562;2023-04-03T06:21:37;59.60;;;57.00;;
62332;SDS011;48624;49.812;8.562;2023-04-03T06:24:04;32.20;;;30.57;;
62332;SDS011;48624;49.812;8.562;2023-04-03T06:26:30;36.07;;;34.63;;
62332;SDS011;48624;49.812;8.562;2023-04-03T06:28:58;24.40;;;23.33;;
62332;SDS011;48624;49.812;8.562;2023-04-03T06:31:23;27.30;;;26.17;;
62332;SDS011;48624;49.812;8.562;2023-04-03T06:33:48;32.80;;;31.30;;
62332;SDS011;48624;49.812;8.562;2023-04-03T06:36:14;29.00;;;27.80;;
62332;SDS011;48624;49.812;8.562;2023-04-03T06:38:44;21.50;;;20.00;;
62332;SDS011;48624;49.812;8.562;2023-04-03T06:41:10;12.13;;;11.23;;
62332;SDS011;48624;49.812;8.562;2023-04-03T06:43:36;17.27;;;16.30;;
62332;SDS011;48624;49.812;8.562;2023-04-03T06:46:02;27.60;;;25.63;;
62332;SDS011;48624;49.812;8.562;2023-04-03T06:48:28;18.48;;;17.70;;
62332;SDS011;48624;49.812;8.562;2023-04-03T06:50:53;12.10;;;11.33;;
62332;SDS011;48624;49.812;8.562;2023-04-03T06:53:18;9.90;;;9.27;;
62332;SDS011;48624;49.812;8.562;2023-04-03T06:55:44;18.07;;;17.07;;
62332;SDS011;48624;49.812;8.562;2023-04-03T06:58:10;15.77;;;14.87;;
62332;SDS011;48624;49.812;8.562;2023-04-03T07:00:35;33.83;;;32.10;;
62332;SDS011;48624;49.812;8.562;2023-04-03T07:03:01;15.97;;;15.07;;
62332;SDS011;48624;49.812;8.562;2023-04-03T07:05:26;13.83;;;12.97;;
62332;SDS011;48624;49.812;8.562;2023-04-03T07:07:52;18.97;;;18.10;;
62332;SDS011;48624;49.812;8.562;2023-04-03T07:10:18;20.27;;;19.27;;
62332;SDS011;48624;49.812;8.562;2023-04-03T07:12:43;33.25;;;31.85;;
62332;SDS011;48624;49.812;8.562;2023-04-03T07:15:09;11.63;;;10.93;;
62332;SDS011;48624;49.812;8.562;2023-04-03T07:17:37;29.37;;;28.13;;
62332;SDS011;48624;49.812;8.562;2023-04-03T07:20:03;28.87;;;27.37;;
62332;SDS011;48624;49.812;8.562;2023-04-03T07:22:29;23.13;;;22.20;;
62332;SDS011;48624;49.812;8.562;2023-04-03T07:24:54;44.37;;;42.37;;
62332;SDS011;48624;49.812;8.562;2023-04-03T07:27:20;34.37;;;32.57;;
62332;SDS011;48624;49.812;8.562;2023-04-03T07:29:45;19.03;;;18.20;;
62332;SDS011;48624;49.812;8.562;2023-04-03T07:32:13;15.77;;;15.07;;
62332;SDS011;48624;49.812;8.562;2023-04-03T07:34:38;17.60;;;16.80;;
62332;SDS011;48624;49.812;8.562;2023-04-03T07:37:03;5.25;;;5.03;;
62332;SDS011;48624;49.812;8.562;2023-04-03T07:39:29;5.17;;;4.17;;
62332;SDS011;48624;49.812;8.562;2023-04-03T07:41:55;50.53;;;48.25;;
62332;SDS011;48624;49.812;8.562;2023-04-03T07:44:21;3.63;;;3.28;;
62332;SDS011;48624;49.812;8.562;2023-04-03T07:46:46;5.23;;;4.83;;
62332;SDS011;48624;49.812;8.562;2023-04-03T07:49:12;6.53;;;3.92;;
62332;SDS011;48624;49.812;8.562;2023-04-03T07:51:37;3.88;;;2.53;;
62332;SDS011;48624;49.812;8.562;2023-04-03T07:54:03;34.78;;;33.10;;
62332;SDS011;48624;49.812;8.562;2023-04-03T07:56:29;1.73;;;1.33;;
62332;SDS011;48624;49.812;8.562;2023-04-03T07:58:56;2.15;;;1.02;;
62332;SDS011;48624;49.812;8.562;2023-04-03T08:01:21;3.33;;;1.73;;
62332;SDS011;48624;49.812;8.562;2023-04-03T08:03:46;5.05;;;1.65;;
62332;SDS011;48624;49.812;8.562;2023-04-03T08:06:12;2.65;;;1.42;;
62332;SDS011;48624;49.812;8.562;2023-04-03T08:08:40;4.07;;;1.10;;
62332;SDS011;48624;49.812;8.562;2023-04-03T08:11:05;2.72;;;1.75;;
62332;SDS011;48624;49.812;8.562;2023-04-03T08:13:32;3.67;;;1.02;;
62332;SDS011;48624;49.812;8.562;2023-04-03T08:16:06;1.50;;;0.85;;
62332;SDS011;48624;49.812;8.562;2023-04-03T08:18:33;5.10;;;1.98;;
62332;SDS011;48624;49.812;8.562;2023-04-03T08:20:59;4.72;;;1.65;;
62332;SDS011;48624;49.812;8.562;2023-04-03T08:23:25;1.70;;;1.20;;
62332;SDS011;48624;49.812;8.562;2023-04-03T08:25:51;2.85;;;1.55;;
62332;SDS011;48624;49.812;8.562;2023-04-03T08:28:16;2.85;;;1.10;;
62332;SDS011;48624;49.812;8.562;2023-04-03T08:30:42;6.85;;;2.38;;
62332;SDS011;48624;49.812;8.562;2023-04-03T08:33:07;1.55;;;1.20;;
62332;SDS011;48624;49.812;8.562;2023-04-03T08:35:41;2.20;;;1.17;;
62332;SDS011;48624;49.812;8.562;2023-04-03T08:38:07;4.18;;;3.88;;
62332;SDS011;48624;49.812;8.562;2023-04-03T08:40:33;0.93;;;0.73;;
62332;SDS011;48624;49.812;8.562;2023-04-03T08:43:02;4.47;;;0.90;;
62332;SDS011;48624;49.812;8.562;2023-04-03T08:45:45;2.15;;;1.02;;
62332;SDS011;48624;49.812;8.562;2023-04-03T08:48:15;6.22;;;1.02;;
62332;SDS011;48624;49.812;8.562;2023-04-03T08:50:46;4.32;;;1.52;;
62332;SDS011;48624;49.812;8.562;2023-04-03T08:53:15;1.42;;;0.88;;
62332;SDS011;48624;49.812;8.562;2023-04-03T08:55:44;1.77;;;1.00;;
62332;SDS011;48624;49.812;8.562;2023-04-03T09:00:46;1.80;;;1.00;;
62332;SDS011;48624;49.812;8.562;2023-04-03T09:03:16;5.53;;;1.77;;
62332;SDS011;48624;49.812;8.562;2023-04-03T09:06:19;5.13;;;2.35;;
62332;SDS011;48624;49.812;8.562;2023-04-03T09:11:26;4.97;;;1.40;;
62332;SDS011;48624;49.812;8.562;2023-04-03T09:16:48;1.45;;;0.70;;
62332;SDS011;48624;49.812;8.562;2023-04-03T09:21:56;2.70;;;1.27;;
62332;SDS011;48624;49.812;8.562;2023-04-03T09:24:36;2.13;;;0.90;;
62332;SDS011;48624;49.812;8.562;2023-04-03T09:27:04;4.32;;;1.27;;
62332;SDS011;48624;49.812;8.562;2023-04-03T09:29:35;2.72;;;1.30;;
62332;SDS011;48624;49.812;8.562;2023-04-03T09:34:59;1.83;;;1.00;;
62332;SDS011;48624;49.812;8.562;2023-04-03T09:37:33;3.35;;;1.05;;
62332;SDS011;48624;49.812;8.562;2023-04-03T09:40:02;2.80;;;1.20;;
62332;SDS011;48624;49.812;8.562;2023-04-03T09:43:02;3.53;;;1.30;;
62332;SDS011;48624;49.812;8.562;2023-04-03T09:45:45;5.15;;;0.98;;
62332;SDS011;48624;49.812;8.562;2023-04-03T09:48:21;3.75;;;1.02;;
62332;SDS011;48624;49.812;8.562;2023-04-03T09:53:39;1.83;;;0.90;;
62332;SDS011;48624;49.812;8.562;2023-04-03T10:01:33;1.77;;;1.00;;
62332;SDS011;48624;49.812;8.562;2023-04-03T10:04:18;5.05;;;0.93;;
62332;SDS011;48624;49.812;8.562;2023-04-03T10:07:25;1.10;;;1.00;;
62332;SDS011;48624;49.812;8.562;2023-04-03T10:09:59;2.22;;;0.68;;
62332;SDS011;48624;49.812;8.562;2023-04-03T10:12:30;1.80;;;0.70;;
62332;SDS011;48624;49.812;8.562;2023-04-03T10:15:15;1.67;;;1.20;;
62332;SDS011;48624;49.812;8.562;2023-04-03T10:21:27;2.20;;;0.98;;
62332;SDS011;48624;49.812;8.562;2023-04-03T10:24:30;2.28;;;0.90;;
62332;SDS011;48624;49.812;8.562;2023-04-03T10:29:46;1.52;;;0.82;;
62332;SDS011;48624;49.812;8.562;2023-04-03T10:36:14;4.85;;;0.80;;
62332;SDS011;48624;49.812;8.562;2023-04-03T10:39:14;1.23;;;0.63;;
62332;SDS011;48624;49.812;8.562;2023-04-03T10:41:56;2.25;;;1.02;;
62332;SDS011;48624;49.812;8.562;2023-04-03T10:47:48;2.50;;;0.60;;
62332;SDS011;48624;49.812;8.562;2023-04-03T10:53:12;2.75;;;0.90;;
62332;SDS011;48624;49.812;8.562;2023-04-03T10:58:40;4.30;;;1.23;;
62332;SDS011;48624;49.812;8.562;2023-04-03T11:01:09;2.35;;;0.85;;
62332;SDS011;48624;49.812;8.562;2023-04-03T11:03:45;2.47;;;0.70;;
62332;SDS011;48624;49.812;8.562;2023-04-03T11:06:15;0.85;;;0.68;;
62332;SDS011;48624;49.812;8.562;2023-04-03T11:11:32;1.85;;;0.82;;
62332;SDS011;48624;49.812;8.562;2023-04-03T11:16:36;2.20;;;0.93;;
62332;SDS011;48624;49.812;8.562;2023-04-03T11:21:57;1.30;;;0.85;;
62332;SDS011;48624;49.812;8.562;2023-04-03T11:24:31;3.78;;;1.10;;
62332;SDS011;48624;49.812;8.562;2023-04-03T11:26:58;1.75;;;0.88;;
62332;SDS011;48624;49.812;8.562;2023-04-03T11:29:31;2.55;;;1.00;;
62332;SDS011;48624;49.812;8.562;2023-04-03T11:34:49;2.28;;;1.20;;
62332;SDS011;48624;49.812;8.562;2023-04-03T11:37:24;3.05;;;0.93;;
62332;SDS011;48624;49.812;8.562;2023-04-03T11:39:56;3.45;;;1.65;;
62332;SDS011;48624;49.812;8.562;2023-04-03T11:42:25;3.35;;;1.40;;
62332;SDS011;48624;49.812;8.562;2023-04-03T11:48:04;2.03;;;0.60;;
62332;SDS011;48624;49.812;8.562;2023-04-03T12:05:47;4.22;;;1.17;;
62332;SDS011;48624;49.812;8.562;2023-04-03T12:16:21;4.30;;;0.93;;
62332;SDS011;48624;49.812;8.562;2023-04-03T12:22:04;2.47;;;1.00;;
62332;SDS011;48624;49.812;8.562;2023-04-03T12:29:48;2.38;;;0.85;;
62332;SDS011;48624;49.812;8.562;2023-04-03T12:32:24;2.45;;;0.85;;
62332;SDS011;48624;49.812;8.562;2023-04-03T12:46:33;2.42;;;2.20;;
62332;SDS011;48624;49.812;8.562;2023-04-03T12:49:22;1.13;;;1.02;;
62332;SDS011;48624;49.812;8.562;2023-04-03T12:51:48;1.83;;;0.98;;
62332;SDS011;48624;49.812;8.562;2023-04-03T12:54:14;1.33;;;1.00;;
62332;SDS011;48624;49.812;8.562;2023-04-03T12:57:38;3.38;;;0.82;;
62332;SDS011;48624;49.812;8.562;2023-04-03T12:59:46;3.47;;;0.90;;
62332;SDS011;48624;49.812;8.562;2023-04-03T13:02:17;1.42;;;0.93;;
62332;SDS011;48624;49.812;8.562;2023-04-03T13:04:48;1.05;;;0.80;;
62332;SDS011;48624;49.812;8.562;2023-04-03T13:07:22;0.80;;;0.50;;
62332;SDS011;48624;49.812;8.562;2023-04-03T13:10:00;3.45;;;0.82;;
62332;SDS011;48624;49.812;8.562;2023-04-03T13:12:28;3.58;;;0.98;;
62332;SDS011;48624;49.812;8.562;2023-04-03T13:15:12;4.90;;;1.25;;
62332;SDS011;48624;49.812;8.562;2023-04-03T13:17:44;1.23;;;0.82;;
62332;SDS011;48624;49.812;8.562;2023-04-03T13:20:15;3.42;;;1.00;;
62332;SDS011;48624;49.812;8.562;2023-04-03T13:22:58;5.45;;;1.25;;
62332;SDS011;48624;49.812;8.562;2023-04-03T13:25:34;1.27;;;0.85;;
62332;SDS011;48624;49.812;8.562;2023-04-03T13:28:05;2.08;;;0.63;;
62332;SDS011;48624;49.812;8.562;2023-04-03T13:30:36;1.17;;;0.63;;
62332;SDS011;48624;49.812;8.562;2023-04-03T13:33:04;1.88;;;0.57;;
62332;SDS011;48624;49.812;8.562;2023-04-03T13:35:43;3.67;;;1.38;;
62332;SDS011;48624;49.812;8.562;2023-04-03T13:40:47;1.25;;;0.88;;
62332;SDS011;48624;49.812;8.562;2023-04-03T13:43:18;0.93;;;0.60;;
62332;SDS011;48624;49.812;8.562;2023-04-03T13:46:03;1.25;;;0.70;;
62332;SDS011;48624;49.812;8.562;2023-04-03T13:48:45;2.00;;;1.23;;
62332;SDS011;48624;49.812;8.562;2023-04-03T13:51:19;1.58;;;0.88;;
62332;SDS011;48624;49.812;8.562;2023-04-03T13:53:52;1.55;;;0.75;;
62332;SDS011;48624;49.812;8.562;2023-04-03T13:56:35;1.98;;;0.80;;
62332;SDS011;48624;49.812;8.562;2023-04-03T14:01:46;2.78;;;1.00;;
62332;SDS011;48624;49.812;8.562;2023-04-03T14:04:26;4.97;;;1.27;;
62332;SDS011;48624;49.812;8.562;2023-04-03T14:06:53;1.02;;;0.82;;
62332;SDS011;48624;49.812;8.562;2023-04-03T14:09:21;1.83;;;1.00;;
62332;SDS011;48624;49.812;8.562;2023-04-03T14:11:49;4.15;;;1.20;;
62332;SDS011;48624;49.812;8.562;2023-04-03T14:14:20;2.78;;;1.10;;
62332;SDS011;48624;49.812;8.562;2023-04-03T14:16:50;2.70;;;1.08;;
62332;SDS011;48624;49.812;8.562;2023-04-03T14:19:22;3.17;;;1.00;;
62332;SDS011;48624;49.812;8.562;2023-04-03T14:21:50;1.25;;;0.95;;
62332;SDS011;48624;49.812;8.562;2023-04-03T14:24:17;2.78;;;0.95;;
62332;SDS011;48624;49.812;8.562;2023-04-03T14:26:45;1.95;;;0.77;;
62332;SDS011;48624;49.812;8.562;2023-04-03T14:29:12;3.25;;;0.82;;
62332;SDS011;48624;49.812;8.562;2023-04-03T14:31:38;4.53;;;1.88;;
62332;SDS011;48624;49.812;8.562;2023-04-03T14:34:05;1.55;;;0.88;;
62332;SDS011;48624;49.812;8.562;2023-04-03T14:36:31;1.23;;;0.98;;
62332;SDS011;48624;49.812;8.562;2023-04-03T14:38:57;3.45;;;0.95;;
62332;SDS011;48624;49.812;8.562;2023-04-03T14:41:24;2.17;;;0.70;;
62332;SDS011;48624;49.812;8.562;2023-04-03T14:43:52;2.20;;;0.98;;
62332;SDS011;48624;49.812;8.562;2023-04-03T14:46:22;3.22;;;0.73;;
62332;SDS011;48624;49.812;8.562;2023-04-03T14:48:51;2.08;;;0.93;;
62332;SDS011;48624;49.812;8.562;2023-04-03T14:51:17;2.85;;;1.00;;
62332;SDS011;48624;49.812;8.562;2023-04-03T14:53:42;2.83;;;0.80;;
62332;SDS011;48624;49.812;8.562;2023-04-03T14:56:14;1.17;;;0.88;;
62332;SDS011;48624;49.812;8.562;2023-04-03T14:58:47;1.70;;;1.00;;
62332;SDS011;48624;49.812;8.562;2023-04-03T15:01:15;2.00;;;0.75;;
62332;SDS011;48624;49.812;8.562;2023-04-03T15:03:41;1.42;;;0.80;;
62332;SDS011;48624;49.812;8.562;2023-04-03T15:06:08;1.88;;;1.05;;
62332;SDS011;48624;49.812;8.562;2023-04-03T15:08:35;1.83;;;0.90;;
62332;SDS011;48624;49.812;8.562;2023-04-03T15:11:02;3.28;;;0.98;;
62332;SDS011;48624;49.812;8.562;2023-04-03T15:13:27;2.70;;;0.98;;
62332;SDS011;48624;49.812;8.562;2023-04-03T15:15:54;2.63;;;1.40;;
62332;SDS011;48624;49.812;8.562;2023-04-03T15:18:26;3.08;;;1.30;;
62332;SDS011;48624;49.812;8.562;2023-04-03T15:20:56;1.25;;;0.95;;
62332;SDS011;48624;49.812;8.562;2023-04-03T15:23:21;2.40;;;1.13;;
62332;SDS011;48624;49.812;8.562;2023-04-03T15:25:51;1.48;;;0.95;;
62332;SDS011;48624;49.812;8.562;2023-04-03T15:28:40;2.80;;;1.48;;
62332;SDS011;48624;49.812;8.562;2023-04-03T15:31:07;3.90;;;0.90;;
62332;SDS011;48624;49.812;8.562;2023-04-03T15:33:33;1.77;;;1.13;;
62332;SDS011;48624;49.812;8.562;2023-04-03T15:35:59;4.43;;;1.08;;
62332;SDS011;48624;49.812;8.562;2023-04-03T15:38:25;2.63;;;1.48;;
62332;SDS011;48624;49.812;8.562;2023-04-03T15:40:50;2.53;;;1.30;;
62332;SDS011;48624;49.812;8.562;2023-04-03T15:43:16;5.18;;;1.58;;
62332;SDS011;48624;49.812;8.562;2023-04-03T15:45:44;1.42;;;0.95;;
62332;SDS011;48624;49.812;8.562;2023-04-03T15:48:10;2.92;;;1.08;;
62332;SDS011;48624;49.812;8.562;2023-04-03T15:50:37;3.70;;;1.35;;
62332;SDS011;48624;49.812;8.562;2023-04-03T15:53:04;2.08;;;1.40;;
62332;SDS011;48624;49.812;8.562;2023-04-03T15:55:30;1.60;;;0.77;;
62332;SDS011;48624;49.812;8.562;2023-04-03T15:57:57;2.65;;;0.95;;
62332;SDS011;48624;49.812;8.562;2023-04-03T16:00:23;2.13;;;1.05;;
62332;SDS011;48624;49.812;8.562;2023-04-03T16:02:53;2.15;;;1.08;;
62332;SDS011;48624;49.812;8.562;2023-04-03T16:05:22;1.95;;;1.00;;
62332;SDS011;48624;49.812;8.562;2023-04-03T16:07:48;3.65;;;1.17;;
62332;SDS011;48624;49.812;8.562;2023-04-03T16:10:14;2.67;;;1.08;;
62332;SDS011;48624;49.812;8.562;2023-04-03T16:12:40;3.55;;;1.13;;
62332;SDS011;48624;49.812;8.562;2023-04-03T16:15:06;2.28;;;0.73;;
62332;SDS011;48624;49.812;8.562;2023-04-03T16:17:32;2.38;;;0.90;;
62332;SDS011;48624;49.812;8.562;2023-04-03T16:19:59;3.63;;;1.10;;
62332;SDS011;48624;49.812;8.562;2023-04-03T16:22:25;2.28;;;1.00;;
62332;SDS011;48624;49.812;8.562;2023-04-03T16:24:52;2.17;;;0.90;;
62332;SDS011;48624;49.812;8.562;2023-04-03T16:27:18;1.95;;;0.95;;
62332;SDS011;48624;49.812;8.562;2023-04-03T16:29:44;1.63;;;0.70;;